Time;durP1;ratioP1;P1;durP2;ratioP2;P2;SDS_P1;SDS_P2;PMS_P1;PMS_P2;Temp;Humidity;BMP_temperature;BMP_pressure;BME280_temperature;BME280_humidity;BME280_pressure;Samples;Min_cycle;Max_cycle;Signal;HPM_P1;HPM_P2
2022/10/31 00:01:01;;;;;;;17.27;8.57;;;14.40;99.90;;;;;;5037453;28;20633;-71
2022/10/31 00:03:28;;;;;;;13.83;7.87;;;13.80;99.90;;;;;;5043525;28;20205;-72
2022/10/31 00:05:54;;;;;;;18.80;8.60;;;13.80;99.90;;;;;;5022586;28;20217;-70
2022/10/31 00:08:21;;;;;;;15.70;7.80;;;14.00;99.90;;;;;;5044076;28;20642;-71
2022/10/31 00:10:48;;;;;;;15.30;8.27;;;13.90;99.90;;;;;;5046766;28;20343;-72
2022/10/31 00:13:16;;;;;;;14.63;8.83;;;13.80;99.90;;;;;;5043281;28;20205;-71
2022/10/31 00:15:43;;;;;;;14.93;8.43;;;13.70;99.90;;;;;;5043904;28;20923;-71
2022/10/31 00:18:10;;;;;;;20.47;8.93;;;13.60;99.90;;;;;;5042286;28;20305;-70
2022/10/31 00:20:37;;;;;;;14.83;7.73;;;13.60;99.90;;;;;;5043991;28;20239;-71
2022/10/31 00:23:05;;;;;;;17.83;9.10;;;13.50;99.90;;;;;;5042206;28;20221;-71
2022/10/31 00:25:37;;;;;;;15.50;8.77;;;13.50;99.90;;;;;;5046075;28;20212;-71
2022/10/31 00:28:06;;;;;;;19.43;9.07;;;13.70;99.90;;;;;;5043851;28;20217;-71
2022/10/31 00:30:33;;;;;;;15.47;9.13;;;13.50;99.90;;;;;;5034380;28;20197;-72
2022/10/31 00:33:02;;;;;;;14.73;8.60;;;13.40;99.90;;;;;;5040716;28;20224;-71
2022/10/31 00:35:32;;;;;;;17.77;8.97;;;13.70;99.90;;;;;;5047454;28;20200;-72
2022/10/31 00:37:59;;;;;;;16.90;9.43;;;13.60;99.90;;;;;;5040367;28;20198;-71
2022/10/31 00:40:25;;;;;;;17.43;8.63;;;13.50;99.90;;;;;;5045771;28;20324;-71
2022/10/31 00:42:52;;;;;;;20.37;10.70;;;13.60;99.90;;;;;;5041617;28;20209;-71
2022/10/31 00:45:19;;;;;;;17.80;8.93;;;13.60;99.90;;;;;;5046177;28;20721;-71
2022/10/31 00:47:46;;;;;;;14.73;8.57;;;13.60;99.90;;;;;;5042561;28;20201;-70
2022/10/31 00:50:13;;;;;;;17.53;8.47;;;13.60;99.90;;;;;;5043192;28;20628;-71
2022/10/31 00:52:39;;;;;;;13.03;8.13;;;13.60;99.90;;;;;;5025303;28;20218;-71
2022/10/31 00:55:06;;;;;;;15.27;7.90;;;13.60;99.90;;;;;;5044754;28;20589;-70
2022/10/31 00:57:33;;;;;;;14.10;8.40;;;13.70;99.90;;;;;;5045459;28;20571;-70
2022/10/31 01:00:00;;;;;;;16.50;8.97;;;13.70;99.90;;;;;;5039435;28;20664;-70
2022/10/31 01:02:27;;;;;;;14.23;8.53;;;13.60;99.90;;;;;;5027364;28;20683;-72
2022/10/31 01:04:54;;;;;;;17.57;8.30;;;13.80;99.90;;;;;;5047703;28;20572;-70
2022/10/31 01:07:20;;;;;;;16.40;7.77;;;13.60;99.90;;;;;;5043535;28;20221;-72
2022/10/31 01:09:47;;;;;;;14.57;8.20;;;13.70;99.90;;;;;;5049182;28;20201;-72
2022/10/31 01:12:14;;;;;;;15.00;8.57;;;13.70;99.90;;;;;;5042646;28;20201;-71
2022/10/31 01:14:44;;;;;;;20.30;8.47;;;13.60;99.90;;;;;;4991817;28;1057674;-71
2022/10/31 01:17:12;;;;;;;15.97;8.27;;;13.50;99.90;;;;;;5024017;28;20206;-71
2022/10/31 01:19:39;;;;;;;16.73;9.23;;;13.90;99.90;;;;;;5042246;28;20225;-72
2022/10/31 01:22:06;;;;;;;15.07;8.37;;;13.60;99.90;;;;;;5029460;28;20217;-71
2022/10/31 01:24:33;;;;;;;19.93;9.80;;;13.50;99.90;;;;;;5044275;28;20292;-71
2022/10/31 01:27:00;;;;;;;16.57;9.20;;;13.50;99.90;;;;;;5047492;28;20202;-70
2022/10/31 01:29:27;;;;;;;18.03;8.80;;;13.50;99.90;;;;;;5042812;28;20292;-71
2022/10/31 01:31:54;;;;;;;17.20;9.10;;;13.50;99.90;;;;;;5047796;28;20670;-70
2022/10/31 01:34:20;;;;;;;17.23;8.93;;;13.50;99.90;;;;;;5038838;28;21002;-70
2022/10/31 01:36:50;;;;;;;18.90;10.37;;;13.50;99.90;;;;;;5050877;28;20692;-70
2022/10/31 01:39:19;;;;;;;19.67;9.60;;;13.70;99.90;;;;;;5044042;28;20271;-71
2022/10/31 01:41:48;;;;;;;14.30;9.20;;;13.60;99.90;;;;;;5045874;28;20205;-72
2022/10/31 01:44:15;;;;;;;21.33;9.10;;;13.50;99.90;;;;;;5047774;28;20211;-71
2022/10/31 01:46:56;;;;;;;19.67;9.47;;;13.50;99.90;;;;;;5030339;28;20571;-71
2022/10/31 01:49:29;;;;;;;20.50;9.23;;;13.50;99.90;;;;;;5024389;28;20220;-71
2022/10/31 01:52:08;;;;;;;18.20;9.20;;;13.50;99.90;;;;;;5042048;28;20228;-71
2022/10/31 01:54:39;;;;;;;15.53;9.17;;;13.40;99.90;;;;;;5048236;28;20254;-71
2022/10/31 01:57:10;;;;;;;15.00;9.17;;;13.30;99.90;;;;;;5045385;28;20331;-71
2022/10/31 01:59:42;;;;;;;15.70;8.87;;;13.50;99.90;;;;;;5044553;28;20294;-71
2022/10/31 02:02:10;;;;;;;19.00;9.50;;;13.20;99.90;;;;;;5043081;28;20213;-71
2022/10/31 02:04:38;;;;;;;15.87;10.17;;;13.00;99.90;;;;;;5044893;28;20196;-70
2022/10/31 02:07:14;;;;;;;18.60;10.10;;;13.50;99.90;;;;;;5041173;28;20785;-72
2022/10/31 02:09:45;;;;;;;17.93;9.90;;;12.80;99.90;;;;;;5030382;28;20196;-71
2022/10/31 02:12:13;;;;;;;20.33;10.30;;;12.80;99.90;;;;;;5046552;28;20618;-71
2022/10/31 02:14:41;;;;;;;16.40;11.33;;;12.70;99.90;;;;;;5044580;28;20292;-71
2022/10/31 02:17:08;;;;;;;17.93;10.47;;;12.60;99.90;;;;;;5044603;28;20212;-71
2022/10/31 02:19:34;;;;;;;22.77;11.37;;;12.60;99.90;;;;;;5042298;28;20729;-72
2022/10/31 02:22:16;;;;;;;20.83;11.93;;;12.60;99.90;;;;;;5045543;28;20248;-71
2022/10/31 02:25:01;;;;;;;19.87;11.50;;;12.50;99.90;;;;;;5045188;28;20704;-71
2022/10/31 02:27:45;;;;;;;16.03;10.53;;;12.60;99.90;;;;;;5026081;28;20666;-72
2022/10/31 02:30:43;;;;;;;22.40;12.83;;;12.60;99.90;;;;;;5041756;28;20201;-70
2022/10/31 02:33:43;;;;;;;23.80;12.40;;;12.50;99.90;;;;;;5037839;28;20669;-70
2022/10/31 02:36:28;;;;;;;21.60;11.90;;;12.30;99.90;;;;;;5022471;28;20308;-70
2022/10/31 02:39:01;;;;;;;18.13;10.63;;;12.30;99.90;;;;;;5040793;28;20211;-71
2022/10/31 02:41:48;;;;;;;22.23;12.67;;;12.20;99.90;;;;;;5040873;28;20227;-71
2022/10/31 02:44:29;;;;;;;20.70;12.53;;;12.20;99.90;;;;;;5042938;28;20676;-71
2022/10/31 02:47:04;;;;;;;23.17;12.77;;;12.10;99.90;;;;;;5044778;28;20658;-71
2022/10/31 02:49:54;;;;;;;26.93;13.40;;;12.10;99.90;;;;;;5044994;28;20296;-70
2022/10/31 02:52:24;;;;;;;23.10;12.33;;;12.10;99.90;;;;;;5042361;28;20220;-71
2022/10/31 02:54:52;;;;;;;24.40;13.27;;;12.00;99.90;;;;;;5045722;28;20287;-71
2022/10/31 02:57:30;;;;;;;27.83;15.90;;;11.90;99.90;;;;;;5044245;28;21060;-72
2022/10/31 03:00:08;;;;;;;27.10;15.00;;;11.90;99.90;;;;;;5046551;28;20319;-71
2022/10/31 03:02:38;;;;;;;33.37;16.23;;;11.90;99.90;;;;;;5043120;28;20293;-71
2022/10/31 03:05:43;;;;;;;30.00;16.23;;;11.80;99.90;;;;;;5045006;28;21015;-70
2022/10/31 03:08:09;;;;;;;31.97;17.10;;;11.80;99.90;;;;;;5045445;28;20304;-71
2022/10/31 03:10:50;;;;;;;32.97;17.23;;;11.80;99.90;;;;;;5046637;28;20208;-71
2022/10/31 03:13:26;;;;;;;34.77;17.20;;;11.80;99.90;;;;;;5044912;28;20212;-72
2022/10/31 03:15:59;;;;;;;30.53;16.70;;;11.70;99.90;;;;;;5044347;28;20722;-71
2022/10/31 03:18:28;;;;;;;25.87;15.60;;;11.70;99.90;;;;;;5041973;28;20212;-70
2022/10/31 03:21:07;;;;;;;31.17;16.37;;;11.70;99.90;;;;;;5044528;28;20237;-71
2022/10/31 03:23:35;;;;;;;28.47;16.27;;;11.60;99.90;;;;;;5042246;28;20205;-71
2022/10/31 03:26:06;;;;;;;31.20;17.93;;;11.60;99.90;;;;;;5045014;28;20199;-71
2022/10/31 03:28:53;;;;;;;25.50;14.60;;;11.50;99.90;;;;;;5045789;28;20257;-71
2022/10/31 03:31:26;;;;;;;30.20;15.60;;;11.60;99.90;;;;;;5030724;28;20292;-72
2022/10/31 03:33:56;;;;;;;32.77;16.77;;;11.40;99.90;;;;;;5045751;28;20210;-70
2022/10/31 03:36:23;;;;;;;36.90;18.53;;;11.40;99.90;;;;;;5049862;28;20312;-70
2022/10/31 03:38:51;;;;;;;31.73;16.57;;;11.40;99.90;;;;;;5045476;28;20203;-71
2022/10/31 03:41:26;;;;;;;29.50;16.53;;;11.30;99.90;;;;;;5049512;28;20225;-72
2022/10/31 03:43:58;;;;;;;37.27;19.50;;;11.30;99.90;;;;;;5039896;28;20212;-71
2022/10/31 03:46:25;;;;;;;41.37;16.70;;;11.20;99.90;;;;;;5022753;28;20218;-72
2022/10/31 03:48:52;;;;;;;32.37;17.63;;;11.50;99.90;;;;;;5050256;28;20410;-71
2022/10/31 03:51:26;;;;;;;30.50;17.37;;;11.30;99.90;;;;;;5044283;28;20226;-71
2022/10/31 03:53:59;;;;;;;42.13;20.50;;;11.30;99.90;;;;;;5047625;28;20300;-71
2022/10/31 03:56:41;;;;;;;33.27;18.47;;;11.20;99.90;;;;;;5048194;28;20320;-72
2022/10/31 03:59:17;;;;;;;35.23;18.17;;;11.30;99.90;;;;;;5052213;28;20311;-71
2022/10/31 04:01:49;;;;;;;40.10;19.13;;;11.20;99.90;;;;;;5046745;28;20752;-72
2022/10/31 04:04:17;;;;;;;40.77;20.73;;;11.20;99.90;;;;;;5042325;28;20224;-71
2022/10/31 04:06:46;;;;;;;37.00;18.60;;;11.40;99.90;;;;;;5045526;28;20231;-72
2022/10/31 04:09:14;;;;;;;34.93;18.37;;;11.10;99.90;;;;;;5044175;28;20197;-71
2022/10/31 04:11:48;;;;;;;37.13;18.20;;;11.10;99.90;;;;;;5048610;28;20207;-71
2022/10/31 04:14:15;;;;;;;29.20;16.37;;;11.10;99.90;;;;;;5024949;28;20204;-71
2022/10/31 04:16:43;;;;;;;36.20;18.10;;;11.00;99.90;;;;;;5046401;28;20255;-71
2022/10/31 04:19:11;;;;;;;35.07;17.17;;;11.10;99.90;;;;;;5024688;28;20200;-71
2022/10/31 04:21:38;;;;;;;35.77;17.97;;;10.90;99.90;;;;;;5045425;28;20244;-71
2022/10/31 04:24:05;;;;;;;33.03;16.97;;;10.80;99.90;;;;;;5047679;28;20198;-72
2022/10/31 04:26:32;;;;;;;33.43;16.90;;;10.80;99.90;;;;;;5046994;28;20847;-72
2022/10/31 04:28:59;;;;;;;31.53;17.70;;;11.10;99.90;;;;;;5041484;28;20221;-72
2022/10/31 04:31:26;;;;;;;32.60;17.43;;;10.80;99.90;;;;;;5043773;28;20299;-73
2022/10/31 04:33:52;;;;;;;33.17;16.93;;;10.70;99.90;;;;;;5022593;28;20221;-71
2022/10/31 04:36:19;;;;;;;35.20;17.27;;;10.80;99.90;;;;;;5047856;28;20223;-70
2022/10/31 04:38:46;;;;;;;30.07;16.23;;;10.70;99.90;;;;;;5047572;28;20623;-71
2022/10/31 04:41:13;;;;;;;32.50;17.80;;;10.70;99.90;;;;;;5048198;28;20240;-70
2022/10/31 04:43:40;;;;;;;31.97;17.37;;;10.70;99.90;;;;;;5041325;28;20295;-72
2022/10/31 04:46:07;;;;;;;30.17;15.60;;;10.60;99.90;;;;;;5026652;28;20212;-71
2022/10/31 04:48:33;;;;;;;27.63;14.27;;;10.70;99.90;;;;;;5040847;28;20283;-72
2022/10/31 04:51:01;;;;;;;27.53;15.53;;;10.60;99.90;;;;;;5024158;28;20218;-71
2022/10/31 04:53:29;;;;;;;30.03;15.93;;;10.60;99.90;;;;;;5043842;28;20212;-71
2022/10/31 04:55:59;;;;;;;27.83;14.40;;;10.50;99.90;;;;;;5049348;28;20234;-71
2022/10/31 04:58:25;;;;;;;31.00;15.83;;;10.50;99.90;;;;;;5045987;28;20205;-71
2022/10/31 05:00:53;;;;;;;27.97;15.27;;;10.40;99.90;;;;;;5012230;28;20565;-71
2022/10/31 05:03:20;;;;;;;29.33;15.67;;;10.30;99.90;;;;;;5042819;28;20210;-71
2022/10/31 05:05:47;;;;;;;30.77;16.27;;;;;;;;;;5040618;28;20215;-72
2022/10/31 05:08:14;;;;;;;30.50;17.20;;;10.40;99.90;;;;;;5045337;28;20303;-71
2022/10/31 05:10:41;;;;;;;28.63;16.30;;;10.70;99.90;;;;;;5043264;28;20286;-72
2022/10/31 05:13:08;;;;;;;29.07;16.63;;;10.40;99.90;;;;;;5042568;28;20211;-71
2022/10/31 05:15:38;;;;;;;29.17;16.43;;;10.30;99.90;;;;;;5044846;28;20243;-70
2022/10/31 05:18:04;;;;;;;24.83;15.30;;;10.30;99.90;;;;;;5036576;28;20728;-71
2022/10/31 05:20:32;;;;;;;30.73;16.13;;;10.30;99.90;;;;;;5043413;28;20229;-71
2022/10/31 05:22:59;;;;;;;32.23;16.83;;;10.30;99.90;;;;;;5047194;28;20209;-71
2022/10/31 05:25:28;;;;;;;31.70;15.87;;;10.30;99.90;;;;;;5043120;28;20243;-71
2022/10/31 05:27:56;;;;;;;32.50;15.93;;;10.30;99.90;;;;;;5040127;28;20208;-71
2022/10/31 05:30:26;;;;;;;30.43;15.17;;;10.20;99.90;;;;;;5025504;28;20236;-71
2022/10/31 05:32:54;;;;;;;32.07;17.07;;;10.20;99.90;;;;;;5040672;28;20696;-71
2022/10/31 05:35:27;;;;;;;39.53;19.67;;;10.30;99.90;;;;;;5050688;28;20313;-70
2022/10/31 05:37:54;;;;;;;35.60;17.57;;;10.30;99.90;;;;;;5040320;28;20250;-71
2022/10/31 05:40:21;;;;;;;32.87;16.93;;;10.20;99.90;;;;;;5043467;28;20215;-71
2022/10/31 05:42:51;;;;;;;36.43;19.50;;;10.20;99.90;;;;;;5039932;28;20209;-74
2022/10/31 05:45:19;;;;;;;38.83;20.67;;;10.20;99.90;;;;;;5025881;28;20212;-71
2022/10/31 05:47:59;;;;;;;35.17;17.07;;;10.50;99.90;;;;;;5037785;28;20215;-72
2022/10/31 05:50:30;;;;;;;32.63;18.20;;;10.10;99.90;;;;;;5045391;28;20288;-72
2022/10/31 05:53:00;;;;;;;40.27;19.83;;;10.20;99.90;;;;;;5043129;28;20227;-70
2022/10/31 05:55:28;;;;;;;43.77;21.40;;;10.10;99.90;;;;;;5048496;28;20198;-72
2022/10/31 05:57:54;;;;;;;36.17;19.00;;;10.20;99.90;;;;;;5041926;28;20801;-71
2022/10/31 06:00:22;;;;;;;35.00;18.33;;;9.80;99.90;;;;;;5048301;28;20305;-71
2022/10/31 06:02:56;;;;;;;41.43;19.43;;;10.00;99.90;;;;;;5022107;28;20295;-71
2022/10/31 06:05:23;;;;;;;34.90;19.90;;;10.00;99.90;;;;;;5042315;28;20208;-70
2022/10/31 06:07:50;;;;;;;35.03;19.53;;;10.00;99.90;;;;;;5043532;28;20257;-72
2022/10/31 06:10:19;;;;;;;39.03;18.90;;;10.00;99.90;;;;;;5044514;28;20241;-71
2022/10/31 06:12:46;;;;;;;35.83;19.43;;;10.00;99.90;;;;;;5043041;28;20571;-71
2022/10/31 06:15:13;;;;;;;33.10;18.73;;;10.00;99.90;;;;;;5043123;28;20326;-71
2022/10/31 06:17:39;;;;;;;34.30;17.03;;;10.00;99.90;;;;;;5042455;28;20303;-71
2022/10/31 06:20:07;;;;;;;28.07;15.17;;;10.00;99.90;;;;;;5045389;28;20205;-71
2022/10/31 06:22:34;;;;;;;32.17;17.23;;;10.00;99.90;;;;;;5043969;28;20318;-72
2022/10/31 06:25:00;;;;;;;34.27;17.30;;;10.00;99.90;;;;;;5041834;28;20209;-71
2022/10/31 06:27:27;;;;;;;33.80;17.23;;;10.00;99.90;;;;;;5046115;28;20210;-71
2022/10/31 06:29:54;;;;;;;28.40;17.00;;;9.90;99.90;;;;;;5021238;28;20196;-71
2022/10/31 06:32:21;;;;;;;34.67;16.50;;;9.90;99.90;;;;;;5039884;28;20212;-72
2022/10/31 06:34:48;;;;;;;32.43;16.93;;;9.90;99.90;;;;;;5042957;28;20226;-71
2022/10/31 06:37:15;;;;;;;29.03;16.13;;;9.90;99.90;;;;;;5028326;28;20229;-71
2022/10/31 06:39:42;;;;;;;27.83;16.53;;;9.80;99.90;;;;;;5042687;28;20195;-71
2022/10/31 06:42:09;;;;;;;24.80;14.50;;;9.80;99.90;;;;;;5040614;28;20239;-71
2022/10/31 06:44:35;;;;;;;30.07;15.53;;;9.80;99.90;;;;;;5018027;28;20253;-70
2022/10/31 06:47:02;;;;;;;27.23;15.23;;;9.80;99.90;;;;;;5043478;28;20198;-71
2022/10/31 06:49:29;;;;;;;29.53;17.13;;;9.70;99.90;;;;;;5033467;28;20231;-70
2022/10/31 06:51:55;;;;;;;27.10;15.70;;;9.70;99.90;;;;;;5044725;28;20221;-72
2022/10/31 06:54:22;;;;;;;30.83;16.13;;;9.70;99.90;;;;;;5043073;28;20204;-71
2022/10/31 06:56:49;;;;;;;32.07;16.67;;;9.70;99.90;;;;;;5044716;28;20222;-71
2022/10/31 06:59:16;;;;;;;36.83;17.67;;;9.70;99.90;;;;;;5027171;28;20207;-71
2022/10/31 07:01:43;;;;;;;32.97;18.53;;;9.70;99.90;;;;;;5042283;28;20277;-71
2022/10/31 07:04:11;;;;;;;32.77;17.30;;;9.70;99.90;;;;;;5040980;28;20207;-71
2022/10/31 07:06:38;;;;;;;34.87;18.20;;;9.70;99.90;;;;;;5045673;28;20242;-71
2022/10/31 07:09:05;;;;;;;29.43;16.23;;;9.70;99.90;;;;;;5021459;28;20284;-70
2022/10/31 07:11:32;;;;;;;30.50;16.87;;;9.70;99.90;;;;;;5042444;28;20295;-72
2022/10/31 07:13:59;;;;;;;31.97;16.93;;;9.80;99.90;;;;;;5028880;28;20251;-72
2022/10/31 07:16:26;;;;;;;26.60;16.33;;;9.80;99.90;;;;;;5040363;28;20240;-71
2022/10/31 07:18:53;;;;;;;29.13;17.73;;;9.80;99.90;;;;;;5045915;28;20329;-71
2022/10/31 07:21:19;;;;;;;27.87;16.37;;;9.90;99.90;;;;;;5045208;28;20231;-71
2022/10/31 07:23:49;;;;;;;35.03;19.73;;;9.90;99.90;;;;;;5047403;28;20203;-71
2022/10/31 07:26:16;;;;;;;33.77;19.40;;;10.00;99.90;;;;;;5039792;28;20226;-71
2022/10/31 07:28:43;;;;;;;33.77;18.17;;;10.00;99.90;;;;;;5024432;28;20204;-71
2022/10/31 07:31:09;;;;;;;30.00;17.67;;;10.00;99.90;;;;;;5048377;28;20294;-72
2022/10/31 07:33:36;;;;;;;29.77;18.13;;;10.10;99.90;;;;;;5030639;28;20327;-72
2022/10/31 07:36:03;;;;;;;26.53;16.07;;;10.10;99.90;;;;;;5051085;28;20322;-70
2022/10/31 07:38:30;;;;;;;33.30;18.97;;;10.20;99.90;;;;;;5043021;28;20216;-72
2022/10/31 07:40:57;;;;;;;37.43;20.87;;;10.20;99.90;;;;;;5025819;28;20312;-71
2022/10/31 07:43:24;;;;;;;36.63;21.07;;;10.20;99.90;;;;;;5050234;28;20299;-75
2022/10/31 07:45:54;;;;;;;39.33;22.10;;;10.30;99.90;;;;;;5041663;28;20664;-74
2022/10/31 07:48:21;;;;;;;44.50;24.57;;;10.30;99.90;;;;;;5048131;28;20219;-71
2022/10/31 07:50:48;;;;;;;49.03;25.27;;;10.40;99.90;;;;;;5046616;28;20216;-70
2022/10/31 07:53:15;;;;;;;62.30;29.90;;;10.40;99.90;;;;;;5053209;28;20295;-71
2022/10/31 07:55:42;;;;;;;93.53;33.30;;;10.50;99.90;;;;;;5044751;28;20208;-71
2022/10/31 07:58:12;;;;;;;150.67;38.17;;;10.60;99.90;;;;;;5045807;28;20233;-72
2022/10/31 08:00:44;;;;;;;146.70;39.37;;;10.70;99.90;;;;;;5039892;28;20299;-71
2022/10/31 08:03:13;;;;;;;147.70;39.63;;;10.90;99.90;;;;;;5019879;28;20209;-71
2022/10/31 08:05:41;;;;;;;120.30;42.47;;;11.00;99.90;;;;;;5042539;28;20281;-71
2022/10/31 08:08:08;;;;;;;165.17;41.83;;;11.20;99.90;;;;;;5028116;28;20672;-72
2022/10/31 08:10:36;;;;;;;147.57;40.67;;;11.30;99.90;;;;;;5039381;28;20692;-71
2022/10/31 08:13:05;;;;;;;111.33;40.30;;;11.50;99.90;;;;;;5046035;28;20289;-72
2022/10/31 08:15:36;;;;;;;118.17;38.03;;;11.60;99.90;;;;;;5043851;28;20288;-71
2022/10/31 08:18:04;;;;;;;111.53;37.20;;;11.70;99.90;;;;;;5041613;28;20522;-72
2022/10/31 08:20:31;;;;;;;122.77;36.33;;;11.80;99.90;;;;;;5024861;28;20217;-72
2022/10/31 08:23:03;;;;;;;102.97;37.37;;;11.90;99.90;;;;;;5031503;28;20260;-70
2022/10/31 08:25:32;;;;;;;93.23;35.57;;;12.00;99.90;;;;;;5040886;28;20238;-71
2022/10/31 08:28:05;;;;;;;94.60;34.43;;;12.20;99.90;;;;;;5025682;28;20565;-71
2022/10/31 08:30:34;;;;;;;102.57;35.47;;;12.30;99.90;;;;;;5042510;28;20300;-71
2022/10/31 08:33:14;;;;;;;82.77;33.73;;;12.30;99.90;;;;;;5023853;28;20255;-71
2022/10/31 08:35:41;;;;;;;72.30;32.50;;;12.50;99.90;;;;;;5041022;28;20268;-70
2022/10/31 08:38:10;;;;;;;64.23;31.47;;;12.50;99.90;;;;;;5033096;28;20228;-71
2022/10/31 08:40:38;;;;;;;61.20;31.37;;;12.70;99.90;;;;;;5044304;28;20300;-70
2022/10/31 08:43:16;;;;;;;60.17;32.10;;;12.70;99.90;;;;;;5047643;28;20341;-71
2022/10/31 08:45:44;;;;;;;70.57;31.93;;;12.80;99.90;;;;;;5046024;28;20224;-70
2022/10/31 08:48:13;;;;;;;54.40;29.57;;;12.80;99.90;;;;;;5047659;28;20201;-71
2022/10/31 08:50:40;;;;;;;60.10;30.90;;;12.90;99.90;;;;;;5041969;28;20331;-71
2022/10/31 08:53:19;;;;;;;59.83;32.27;;;13.00;99.90;;;;;;5044094;28;20300;-71
2022/10/31 08:55:46;;;;;;;58.93;29.73;;;13.00;99.90;;;;;;5044776;28;20662;-70
2022/10/31 08:58:18;;;;;;;60.70;31.13;;;12.90;99.90;;;;;;5047662;28;20688;-70
2022/10/31 09:00:47;;;;;;;53.87;30.43;;;13.10;99.90;;;;;;5039943;28;20573;-71
2022/10/31 09:03:32;;;;;;;51.00;29.73;;;13.20;99.90;;;;;;5045996;28;20328;-71
2022/10/31 09:06:00;;;;;;;48.27;27.80;;;13.30;99.90;;;;;;5027217;28;20255;-70
2022/10/31 09:08:30;;;;;;;46.57;28.67;;;13.30;99.90;;;;;;5038280;28;20798;-71
2022/10/31 09:10:57;;;;;;;45.47;27.57;;;13.40;99.90;;;;;;5044613;28;20288;-70
2022/10/31 09:13:24;;;;;;;42.83;27.40;;;13.40;99.90;;;;;;5035911;28;20202;-71
2022/10/31 09:15:55;;;;;;;44.37;27.53;;;13.50;99.90;;;;;;5046623;28;20229;-71
2022/10/31 09:18:23;;;;;;;42.40;26.47;;;13.50;99.90;;;;;;5039515;28;20543;-71
2022/10/31 09:20:50;;;;;;;45.33;27.63;;;13.50;99.90;;;;;;5046627;28;20259;-70
2022/10/31 09:23:22;;;;;;;44.37;27.67;;;13.60;99.90;;;;;;5044144;28;20229;-70
2022/10/31 09:25:51;;;;;;;42.03;25.90;;;13.60;99.90;;;;;;5024975;28;20205;-70
2022/10/31 09:28:21;;;;;;;43.37;26.73;;;13.60;99.90;;;;;;5043700;28;20691;-70
2022/10/31 09:30:50;;;;;;;41.40;25.33;;;13.70;99.90;;;;;;5047503;28;20288;-72
2022/10/31 09:33:17;;;;;;;48.10;27.73;;;13.70;99.90;;;;;;5026417;28;20562;-70
2022/10/31 09:35:44;;;;;;;43.03;27.33;;;13.80;99.90;;;;;;5025643;28;20213;-72
2022/10/31 09:38:14;;;;;;;47.13;27.77;;;13.90;99.90;;;;;;5043044;28;20670;-70
2022/10/31 09:40:47;;;;;;;42.13;26.37;;;13.90;99.90;;;;;;5044008;28;20287;-71
2022/10/31 09:43:38;;;;;;;46.07;26.77;;;14.00;99.90;;;;;;5033163;28;20252;-71
2022/10/31 09:46:38;;;;;;;44.03;26.37;;;14.00;99.90;;;;;;5033377;28;20622;-72
2022/10/31 09:49:25;;;;;;;49.67;26.47;;;14.10;99.90;;;;;;5045790;28;20249;-69
2022/10/31 09:51:59;;;;;;;45.33;27.20;;;14.10;99.90;;;;;;4997058;28;20751;-71
2022/10/31 09:54:49;;;;;;;43.90;25.43;;;14.20;99.90;;;;;;5043617;28;20208;-71
2022/10/31 09:57:28;;;;;;;45.70;25.73;;;14.20;99.90;;;;;;5047843;28;20221;-70
2022/10/31 09:59:55;;;;;;;42.60;25.43;;;14.20;99.90;;;;;;5043678;28;20215;-71
2022/10/31 10:02:51;;;;;;;44.37;26.70;;;14.30;99.90;;;;;;5031365;28;20701;-71
2022/10/31 10:05:37;;;;;;;49.33;28.87;;;14.30;99.90;;;;;;5039948;28;20211;-71
2022/10/31 10:08:11;;;;;;;49.27;28.57;;;14.40;99.90;;;;;;5044294;28;20217;-70
2022/10/31 10:11:03;;;;;;;50.10;30.50;;;14.50;99.90;;;;;;5045969;28;20686;-70
2022/10/31 10:13:48;;;;;;;46.50;29.17;;;14.50;99.90;;;;;;5026042;28;20213;-71
2022/10/31 10:16:26;;;;;;;56.50;32.60;;;14.60;99.90;;;;;;5036596;28;20775;-71
2022/10/31 10:19:13;;;;;;;52.20;32.20;;;14.70;99.90;;;;;;5029806;28;20185;-70
2022/10/31 10:22:18;;;;;;;49.30;31.90;;;14.80;99.90;;;;;;5045087;28;20664;-71
2022/10/31 10:25:13;;;;;;;56.73;33.70;;;15.00;99.90;;;;;;4997792;28;20272;-70
2022/10/31 10:27:54;;;;;;;45.33;30.13;;;15.10;99.90;;;;;;5022952;28;20209;-70
2022/10/31 10:30:42;;;;;;;48.22;28.15;;;15.30;99.90;;;;;;5025348;28;20193;-70
2022/10/31 10:33:30;;;;;;;46.58;27.75;;;15.40;99.90;;;;;;5046730;28;20204;-70
2022/10/31 10:36:03;;;;;;;52.58;28.92;;;15.60;99.90;;;;;;5042210;28;20221;-71
2022/10/31 10:39:00;;;;;;;43.92;27.63;;;15.70;99.90;;;;;;5043587;28;20220;-70
2022/10/31 10:41:31;;;;;;;46.72;26.90;;;15.80;99.90;;;;;;5045310;28;20243;-73
2022/10/31 10:44:01;;;;;;;40.33;24.83;;;15.90;99.90;;;;;;5045971;28;20213;-71
2022/10/31 10:49:46;;;;;;;42.03;23.60;;;16.10;99.90;;;;;;5044093;28;20256;-70
2022/10/31 10:52:34;;;;;;;36.47;22.92;;;16.20;99.90;;;;;;5043951;28;20245;-71
2022/10/31 10:55:28;;;;;;;38.80;24.55;;;16.30;99.90;;;;;;5042128;28;20524;-71
2022/10/31 10:58:07;;;;;;;34.85;22.08;;;16.40;99.90;;;;;;5044717;28;20642;-70
2022/10/31 11:00:47;;;;;;;34.67;21.55;;;16.50;99.90;;;;;;5041863;28;20300;-71
2022/10/31 11:03:16;;;;;;;33.20;20.52;;;16.60;99.90;;;;;;5047328;28;20239;-70
2022/10/31 11:05:53;;;;;;;33.22;20.05;;;16.60;99.90;;;;;;5046927;28;20205;-71
2022/10/31 11:08:25;;;;;;;31.05;18.85;;;16.60;99.90;;;;;;5048420;28;20294;-70
2022/10/31 11:11:10;;;;;;;30.73;18.80;;;16.70;99.90;;;;;;5046923;28;20201;-71
2022/10/31 11:13:40;;;;;;;31.88;19.42;;;16.70;99.90;;;;;;5035578;28;20211;-70
2022/10/31 11:16:11;;;;;;;33.17;19.60;;;16.80;99.90;;;;;;5047110;28;20233;-70
2022/10/31 11:18:42;;;;;;;31.40;19.85;;;16.70;99.90;;;;;;5049123;28;20212;-70
2022/10/31 11:21:25;;;;;;;31.45;19.38;;;16.70;99.90;;;;;;5026280;28;20232;-70
2022/10/31 11:24:03;;;;;;;32.30;20.77;;;16.80;99.90;;;;;;5043150;28;20331;-70
2022/10/31 11:26:30;;;;;;;31.02;20.02;;;16.80;99.90;;;;;;5047054;28;20656;-71
2022/10/31 11:28:59;;;;;;;31.70;18.83;;;16.80;99.90;;;;;;5043730;28;20236;-70
2022/10/31 11:31:27;;;;;;;33.67;19.40;;;16.90;99.90;;;;;;5024703;28;20229;-71
2022/10/31 11:34:12;;;;;;;29.48;18.10;;;17.00;99.90;;;;;;5051940;28;20203;-70
2022/10/31 11:36:43;;;;;;;27.48;17.77;;;17.10;99.90;;;;;;5047828;28;20224;-70
2022/10/31 11:39:22;;;;;;;26.45;16.17;;;17.10;99.90;;;;;;5037191;28;20201;-72
2022/10/31 11:41:50;;;;;;;25.98;15.32;;;17.20;99.90;;;;;;5047331;28;20299;-71
2022/10/31 11:44:29;;;;;;;29.73;15.52;;;17.30;99.90;;;;;;5029522;28;20619;-70
2022/10/31 11:47:01;;;;;;;26.35;15.15;;;17.30;99.90;;;;;;5048176;28;20208;-70
2022/10/31 11:49:36;;;;;;;22.17;14.63;;;17.50;99.90;;;;;;5024146;28;20591;-70
2022/10/31 11:52:14;;;;;;;22.92;13.80;;;17.50;99.90;;;;;;5043454;28;20827;-71
2022/10/31 11:54:50;;;;;;;24.23;13.23;;;17.60;99.90;;;;;;5044531;28;20296;-70
2022/10/31 11:57:30;;;;;;;24.27;12.38;;;17.60;99.90;;;;;;5049296;28;20216;-71
2022/10/31 12:00:03;;;;;;;24.73;13.15;;;17.70;99.90;;;;;;5032813;28;20291;-71
2022/10/31 12:02:30;;;;;;;23.60;13.32;;;17.80;99.90;;;;;;5047875;28;20312;-70
2022/10/31 12:05:05;;;;;;;24.55;13.88;;;17.80;99.90;;;;;;5050648;28;20205;-71
2022/10/31 12:07:32;;;;;;;25.40;15.07;;;18.00;99.90;;;;;;5044389;28;20225;-72
2022/10/31 12:09:59;;;;;;;25.25;14.77;;;18.00;99.90;;;;;;5027845;28;20205;-71
2022/10/31 12:12:43;;;;;;;26.80;14.60;;;18.00;99.90;;;;;;5041761;28;20267;-70
2022/10/31 12:15:33;;;;;;;29.48;15.38;;;18.10;99.90;;;;;;5047420;28;20737;-71
2022/10/31 12:18:09;;;;;;;26.67;16.73;;;18.00;99.90;;;;;;5040499;28;20256;-76
2022/10/31 12:21:08;;;;;;;39.05;18.08;;;18.00;99.90;;;;;;5045702;28;20275;-70
2022/10/31 12:23:53;;;;;;;34.33;17.35;;;18.00;99.90;;;;;;4948047;28;20328;-72
2022/10/31 12:26:50;;;;;;;41.90;19.92;;;18.00;99.90;;;;;;5041622;28;20210;-71
2022/10/31 12:29:36;;;;;;;35.58;19.23;;;18.00;99.90;;;;;;5041638;28;20289;-71
2022/10/31 12:32:21;;;;;;;36.92;19.90;;;18.00;99.90;;;;;;5046773;28;20220;-71
2022/10/31 12:34:47;;;;;;;41.58;21.02;;;18.00;99.90;;;;;;5044297;28;20301;-71
2022/10/31 12:37:32;;;;;;;40.90;20.45;;;18.00;99.90;;;;;;5048538;28;20217;-71
2022/10/31 12:40:05;;;;;;;39.55;21.95;;;18.10;99.90;;;;;;5028787;28;20211;-71
2022/10/31 12:42:38;;;;;;;39.78;20.98;;;18.20;99.90;;;;;;5045546;28;20316;-71
2022/10/31 12:45:35;;;;;;;41.20;21.52;;;18.20;99.90;;;;;;5044621;28;20202;-71
2022/10/31 12:48:28;;;;;;;37.88;20.73;;;18.30;99.90;;;;;;5043500;28;20272;-71
2022/10/31 12:51:08;;;;;;;38.58;21.15;;;18.40;99.90;;;;;;5043510;28;20216;-71
2022/10/31 12:54:10;;;;;;;40.42;20.48;;;18.40;99.90;;;;;;5046960;28;20212;-71
2022/10/31 12:56:46;;;;;;;41.72;21.58;;;18.50;99.90;;;;;;5047524;28;20284;-71